Covesville, VA

7:51 PM EDT on July 27, 2016 (GMT -0400)
Fan Mountain Observatory | | Change Station

Elev 1788 ft 37.88 °N, 78.69 °W | Updated 8 seconds ago

Light Rain
Light Rain
73.2 °F
Feels Like 71 °F
N
6.0
Wind Variable Wind from NW
Gusts 6.0 mph

Today
High -- | Low -- °F
--% Chance of Precip.
Yesterday
High -- | Low -- °F
Precip. -- in
Pressure 29.94 in
Visibility 8.0 miles
Clouds Scattered Clouds 10000 ft
Scattered Clouds 12000 ft
Heat Index 71 °F
Dew Point 70 °F
Humidity 90%
Rainfall 0.35 in
Snow Depth Not available.
6:14 AM 8:27 PM
Last Quarter, 38% visible
METAR KCHO 272253Z 21004KT 8SM -RA SCT100 SCT120 27/23 A2997 RMK AO2 LTG DSNT W RAB10E32B46 SLP139 P0001 T02670233
Pressure 29.94 in
Visibility 8.0 miles
Clouds Scattered Clouds 10000 ft
Scattered Clouds 12000 ft
Heat Index 71 °F
Dew Point 70 °F
Humidity 90%
Rainfall 0.35 in
Snow Depth Not available.
6:14 AM 8:27 PM
Last Quarter, 38% visible
METAR KCHO 272253Z 21004KT 8SM -RA SCT100 SCT120 27/23 A2997 RMK AO2 LTG DSNT W RAB10E32B46 SLP139 P0001 T02670233

10-Day Weather Forecast

Almanac

Astronomy

Jul. 27, 2016 Rise Set
Actual Time
Civil Twilight
Nautical Twilight
Astronomical Twilight
Moon
Length of Visible Light
Length of Day
Tomorrow will be .
, % of the Moon is Illuminated

Today's Extremes

State Highs State Lows

Community

WunderPhotos

Upload Photos

1,927,958 photos uploaded!

WunderBlog® & News

Nearby

Air Quality

  Air Quality AQ Index Pollutant
Not available.

Snow Depth

Station Depth Elevation

Earthquake Activity

City Distance Mag. Time & Date
Minimum magnitude displayed is 2.5.

Coastal Water Temperatures

Place Temperature

Stations

Nearby Weather Stations

Station Location Temp. Windchill Dew Point Humidity Wind Precip. Elev Updated Type
                   

Watches & Warnings

There are currently no watches in effect.